Pagina principală
METAR-TAF:

METAR-TAF

Aeroporturi :

Watonga, Oklahoma, Statele Unite ale Americii

Latitudine: 35-51-53N, longitudine: 098-25-15W, elevație: 472 m

Observații meteo curente

Raportul a fost făcut în urmă cu 41 de minute, la 15:15 UTC
Vânt 11 kt de la Sud
Temperatură 26°C
Umiditate 54%
Presiune 1012 hPa
Vizibilitate: 16.1 km
Cer senin

METAR: KJWG 181515Z AUTO 19011KT 10SM CLR 26/16 A2987 RMK AO2 T02590160

Ora: 10:56 (15:56 UTC)


TAF: lipsă

Observații și prognoze meteo pentru peste 4.000 de aeroporturi (rapoarte METAR și TAF).

Stațiile disponibile sunt reprezentate pe hartă prin puncte galbene și roșii.

Țineți indicatorul mouse-ului pe punctul dorit pentru a vedea denumirea stației.

Apoi, faceți clic pentru a vedea observațiile și prognozele meteorologice.

Pentru a schimba harta: Pentru mărire, faceți clic pe butoanele verzi cu cruce neagră; pentru micșorare, pe butonul verde cu o liniuță; pentru hărți învecinate, pe săgețile verzi.


METAR-TAF: